createdAt,value
2023-05-19T00:00:07.165Z,0.5
2023-05-19T00:01:06.819Z,0.2
2023-05-19T00:02:06.701Z,0.6
2023-05-19T00:03:06.237Z,0.2
2023-05-19T00:04:07.078Z,0.1
2023-05-19T00:05:06.992Z,0.0
2023-05-19T00:06:07.007Z,0.0
2023-05-19T00:07:09.186Z,0.3
2023-05-19T00:08:06.975Z,0.3
2023-05-19T00:09:08.078Z,0.0
2023-05-19T00:10:07.040Z,0.6
2023-05-19T00:11:06.745Z,0.5
2023-05-19T00:12:06.545Z,0.0
2023-05-19T00:13:06.219Z,0.2
2023-05-19T00:14:07.470Z,0.3
2023-05-19T00:15:07.024Z,0.5
2023-05-19T00:16:06.807Z,1.6
2023-05-19T00:17:06.635Z,0.0
2023-05-19T00:18:05.913Z,0.1
2023-05-19T00:19:06.757Z,0.3
2023-05-19T00:20:06.767Z,0.5
2023-05-19T00:21:06.234Z,0.1
2023-05-19T00:22:06.067Z,0.3
2023-05-19T00:23:06.767Z,0.2
2023-05-19T00:24:06.641Z,0.2
2023-05-19T00:25:06.672Z,0.5
2023-05-19T00:26:06.258Z,0.4
2023-05-19T00:27:06.065Z,0.4
2023-05-19T00:28:06.729Z,0.6
2023-05-19T00:29:06.590Z,0.3
2023-05-19T00:30:07.098Z,0.3
2023-05-19T00:31:06.340Z,0.0
2023-05-19T00:32:06.190Z,0.4
2023-05-19T00:33:06.777Z,0.0
2023-05-19T00:34:06.490Z,0.1
2023-05-19T00:35:06.738Z,0.2
2023-05-19T00:36:06.433Z,0.5
2023-05-19T00:37:05.944Z,0.2
2023-05-19T00:38:06.682Z,0.4
2023-05-19T00:39:06.468Z,0.0
2023-05-19T00:40:06.983Z,0.0
2023-05-19T00:41:06.629Z,0.1
2023-05-19T00:42:08.091Z,0.0
2023-05-19T00:43:06.700Z,0.8
2023-05-19T00:44:06.597Z,0.6
2023-05-19T00:45:06.603Z,0.2
2023-05-19T00:46:06.219Z,0.1
2023-05-19T00:47:07.250Z,0.0
2023-05-19T00:48:06.759Z,0.2
2023-05-19T00:49:06.353Z,0.0
2023-05-19T00:50:06.399Z,0.2
2023-05-19T00:51:06.168Z,0.0
2023-05-19T00:52:06.859Z,0.2
2023-05-19T00:53:07.060Z,0.2
2023-05-19T00:54:07.108Z,0.3
2023-05-19T00:55:06.925Z,0.0
2023-05-19T00:56:06.136Z,0.0
2023-05-19T00:57:06.721Z,0.0
2023-05-19T00:58:08.386Z,0.0
2023-05-19T00:59:06.890Z,1.2
2023-05-19T01:00:06.600Z,0.0
2023-05-19T01:01:06.390Z,0.3
2023-05-19T01:02:06.655Z,0.1
2023-05-19T01:03:06.634Z,0.0
2023-05-19T01:04:06.541Z,0.3
2023-05-19T01:05:06.424Z,0.0
2023-05-19T01:06:06.231Z,0.9
2023-05-19T01:07:06.984Z,0.5
2023-05-19T01:08:06.804Z,0.1
2023-05-19T01:09:06.263Z,0.0
2023-05-19T01:10:06.369Z,0.1
2023-05-19T01:11:07.323Z,0.6
2023-05-19T01:12:06.903Z,0.1
2023-05-19T01:13:06.651Z,0.0
2023-05-19T01:14:06.242Z,0.0
2023-05-19T01:15:06.450Z,0.0
2023-05-19T01:16:10.933Z,0.0
2023-05-19T01:17:23.261Z,0.0
2023-05-19T01:18:11.454Z,0.1
2023-05-19T01:19:16.750Z,0.6
2023-05-19T01:20:10.398Z,0.0
2023-05-19T01:21:14.303Z,0.1
2023-05-19T01:22:20.280Z,0.2
2023-05-19T01:23:16.775Z,0.0
2023-05-19T01:24:13.773Z,0.0
2023-05-19T01:25:19.812Z,0.6
2023-05-19T01:26:20.242Z,0.2
2023-05-19T01:27:24.693Z,0.0
2023-05-19T01:28:11.113Z,0.5
2023-05-19T01:29:19.744Z,0.0
2023-05-19T01:30:20.292Z,0.0
2023-05-19T01:31:08.782Z,0.2
2023-05-19T01:32:06.798Z,0.2
2023-05-19T01:33:07.610Z,0.3
2023-05-19T01:34:06.142Z,0.0
2023-05-19T01:35:08.217Z,0.0
2023-05-19T01:36:07.062Z,0.7
2023-05-19T01:37:06.770Z,0.7
2023-05-19T01:38:09.335Z,0.2
2023-05-19T01:39:05.995Z,0.1
2023-05-19T01:40:07.409Z,0.7
2023-05-19T01:41:07.280Z,0.4
2023-05-19T01:42:07.098Z,0.0
2023-05-19T01:43:07.316Z,0.3
2023-05-19T01:44:06.483Z,0.0
2023-05-19T01:45:07.099Z,0.3
2023-05-19T01:46:06.762Z,0.6
2023-05-19T01:47:06.368Z,0.0
2023-05-19T01:48:07.780Z,0.0
2023-05-19T01:49:06.750Z,0.0
2023-05-19T01:50:06.840Z,0.2
2023-05-19T01:51:07.343Z,0.1
2023-05-19T01:52:06.379Z,0.7
2023-05-19T01:53:06.622Z,0.5
2023-05-19T01:54:06.764Z,0.0
2023-05-19T01:55:07.168Z,0.0
2023-05-19T01:56:06.698Z,0.0
2023-05-19T01:57:11.119Z,0.2
2023-05-19T01:58:09.416Z,0.9
2023-05-19T01:59:11.606Z,0.0
2023-05-19T02:00:14.299Z,0.1
2023-05-19T02:01:13.757Z,0.0
2023-05-19T02:02:11.095Z,0.0
2023-05-19T02:03:10.900Z,1.2
2023-05-19T02:04:17.306Z,0.1
2023-05-19T02:05:11.411Z,0.2
2023-05-19T02:06:11.205Z,0.0
2023-05-19T02:07:17.608Z,0.2
2023-05-19T02:08:11.743Z,0.3
2023-05-19T02:09:11.265Z,0.0
2023-05-19T02:10:10.437Z,0.8
2023-05-19T02:11:09.355Z,0.3
2023-05-19T02:12:28.778Z,0.0
2023-05-19T02:13:09.080Z,0.0
2023-05-19T02:14:14.238Z,0.0
2023-05-19T02:15:08.451Z,0.4
2023-05-19T02:16:06.575Z,0.5
2023-05-19T02:17:06.000Z,0.6
2023-05-19T02:18:08.805Z,0.6
2023-05-19T02:19:11.430Z,0.0
2023-05-19T02:20:06.940Z,0.3
2023-05-19T02:21:06.190Z,0.9
2023-05-19T02:22:06.091Z,0.4
2023-05-19T02:23:06.659Z,0.0
2023-05-19T02:24:06.582Z,0.3
2023-05-19T02:25:06.655Z,0.0
2023-05-19T02:26:05.998Z,0.0
2023-05-19T02:27:06.758Z,0.0
2023-05-19T02:28:06.613Z,0.0
2023-05-19T02:29:06.405Z,0.0
2023-05-19T02:30:06.946Z,0.4
2023-05-19T02:31:06.037Z,0.5
2023-05-19T02:32:07.003Z,0.6
2023-05-19T02:33:06.732Z,0.4
2023-05-19T02:34:06.356Z,0.2
2023-05-19T02:35:06.334Z,0.1
2023-05-19T02:36:06.258Z,0.1
2023-05-19T02:37:06.877Z,0.4
2023-05-19T02:38:06.542Z,0.3
2023-05-19T02:39:06.363Z,0.1
2023-05-19T02:40:06.569Z,0.7
2023-05-19T02:41:05.916Z,0.0
2023-05-19T02:42:06.714Z,0.0
2023-05-19T02:43:06.439Z,0.3
2023-05-19T02:44:06.532Z,0.4
2023-05-19T02:45:06.399Z,0.6
2023-05-19T02:46:06.813Z,0.0
2023-05-19T02:47:06.558Z,0.0
2023-05-19T02:48:06.433Z,0.3
2023-05-19T02:49:06.380Z,0.1
2023-05-19T02:50:06.672Z,0.0
2023-05-19T02:51:06.674Z,0.1
2023-05-19T02:52:06.501Z,0.0
2023-05-19T02:53:06.352Z,0.0
2023-05-19T02:54:06.175Z,0.0
2023-05-19T02:55:07.199Z,0.8
2023-05-19T02:56:06.626Z,0.0
2023-05-19T02:57:06.472Z,0.3
2023-05-19T02:58:06.261Z,0.1
2023-05-19T02:59:06.094Z,0.2
2023-05-19T03:00:07.354Z,0.5
2023-05-19T03:01:06.521Z,0.3
2023-05-19T03:02:06.598Z,0.1
2023-05-19T03:03:06.267Z,0.0
2023-05-19T03:04:06.046Z,0.3
2023-05-19T03:05:07.315Z,0.0
2023-05-19T03:06:06.555Z,0.4
2023-05-19T03:07:06.519Z,0.2
2023-05-19T03:08:06.314Z,0.3
2023-05-19T03:09:05.985Z,0.5
2023-05-19T03:10:07.157Z,0.6
2023-05-19T03:11:06.418Z,0.0
2023-05-19T03:12:06.314Z,0.1
2023-05-19T03:13:06.050Z,0.3
2023-05-19T03:14:06.792Z,0.2
2023-05-19T03:15:06.992Z,0.1
2023-05-19T03:16:06.458Z,0.5
2023-05-19T03:17:06.228Z,0.0
2023-05-19T03:18:06.104Z,0.6
2023-05-19T03:19:06.897Z,0.8
2023-05-19T03:20:07.066Z,0.0
2023-05-19T03:21:06.311Z,0.0
2023-05-19T03:22:06.131Z,0.1
2023-05-19T03:23:05.971Z,0.2
2023-05-19T03:24:06.751Z,0.5
2023-05-19T03:25:06.725Z,0.0
2023-05-19T03:26:06.295Z,0.0
2023-05-19T03:27:06.133Z,0.0
2023-05-19T03:28:05.913Z,0.2
2023-05-19T03:29:06.633Z,0.0
2023-05-19T03:30:06.949Z,0.1
2023-05-19T03:31:06.279Z,0.7
2023-05-19T03:32:06.237Z,0.0
2023-05-19T03:33:06.826Z,0.0
2023-05-19T03:34:06.627Z,0.2
2023-05-19T03:35:06.664Z,0.4
2023-05-19T03:36:06.518Z,0.1
2023-05-19T03:37:06.034Z,0.0
2023-05-19T03:38:06.691Z,0.2
2023-05-19T03:39:06.551Z,0.4
2023-05-19T03:40:07.160Z,0.0
2023-05-19T03:41:06.171Z,0.0
2023-05-19T03:42:06.061Z,0.0
2023-05-19T03:43:06.692Z,0.1
2023-05-19T03:44:06.548Z,0.0
2023-05-19T03:45:06.752Z,0.1
2023-05-19T03:46:06.238Z,0.0
2023-05-19T03:47:06.054Z,0.0
2023-05-19T03:48:06.653Z,0.0
2023-05-19T03:49:06.469Z,0.3
2023-05-19T03:50:06.586Z,0.0
2023-05-19T03:51:06.040Z,1.8
2023-05-19T03:52:06.768Z,0.0
2023-05-19T03:53:06.614Z,0.2
2023-05-19T03:54:06.397Z,0.0
2023-05-19T03:55:06.826Z,0.1
2023-05-19T03:56:06.560Z,0.2
2023-05-19T03:57:06.770Z,0.8
2023-05-19T03:58:06.558Z,0.0
2023-05-19T03:59:06.358Z,0.1
2023-05-19T04:00:06.793Z,0.0
2023-05-19T04:01:06.004Z,0.1
2023-05-19T04:02:08.187Z,0.0
2023-05-19T04:03:06.637Z,0.5
2023-05-19T04:04:06.343Z,0.0
2023-05-19T04:05:07.302Z,0.0
2023-05-19T04:06:06.392Z,0.3
2023-05-19T04:07:06.594Z,0.0
2023-05-19T04:08:06.402Z,0.1
2023-05-19T04:09:12.545Z,0.0
2023-05-19T04:10:06.509Z,0.8
2023-05-19T04:11:06.872Z,0.5
2023-05-19T04:12:06.933Z,0.5
2023-05-19T04:13:06.393Z,0.2
2023-05-19T04:14:06.663Z,0.1
2023-05-19T04:15:06.536Z,0.4
2023-05-19T04:16:06.999Z,0.0
2023-05-19T04:17:06.591Z,0.5
2023-05-19T04:18:06.387Z,0.1
2023-05-19T04:19:06.210Z,0.1
2023-05-19T04:20:06.270Z,0.4
2023-05-19T04:21:06.678Z,0.6
2023-05-19T04:22:06.543Z,0.3
2023-05-19T04:23:06.318Z,0.0
2023-05-19T04:24:06.344Z,0.3
2023-05-19T04:25:07.025Z,0.3
2023-05-19T04:26:06.596Z,0.5
2023-05-19T04:27:06.581Z,0.3
2023-05-19T04:28:06.210Z,0.0
2023-05-19T04:29:05.987Z,0.3
2023-05-19T04:30:07.137Z,0.2
2023-05-19T04:31:06.689Z,0.0
2023-05-19T04:32:06.508Z,0.2
2023-05-19T04:33:06.199Z,0.7
2023-05-19T04:34:06.074Z,0.1
2023-05-19T04:35:06.820Z,0.0
2023-05-19T04:36:07.113Z,0.0
2023-05-19T04:37:08.897Z,0.0
2023-05-19T04:38:06.075Z,0.6
2023-05-19T04:39:06.864Z,0.0
2023-05-19T04:40:07.299Z,0.7
2023-05-19T04:41:06.732Z,0.0
2023-05-19T04:42:06.289Z,0.5
2023-05-19T04:43:06.027Z,0.0
2023-05-19T04:44:06.692Z,0.1
2023-05-19T04:45:06.926Z,0.0
2023-05-19T04:46:10.983Z,0.0
2023-05-19T04:47:06.767Z,0.0
2023-05-19T04:48:05.982Z,0.0
2023-05-19T04:49:06.666Z,0.1
2023-05-19T04:50:06.960Z,0.4
2023-05-19T04:51:06.503Z,0.0
2023-05-19T04:52:06.923Z,0.0
2023-05-19T04:53:05.971Z,0.0
2023-05-19T04:54:06.840Z,0.2
2023-05-19T04:55:06.650Z,0.0
2023-05-19T04:56:06.406Z,0.0
2023-05-19T04:57:06.060Z,0.1
2023-05-19T04:58:06.791Z,0.0
2023-05-19T04:59:06.582Z,0.3
2023-05-19T05:00:07.021Z,0.0
2023-05-19T05:01:06.193Z,0.0
2023-05-19T05:02:06.087Z,0.2
2023-05-19T05:03:06.777Z,0.5
2023-05-19T05:04:06.519Z,0.0
2023-05-19T05:05:06.853Z,0.1
2023-05-19T05:06:06.219Z,0.0
2023-05-19T05:07:05.944Z,0.0
2023-05-19T05:08:06.767Z,0.0
2023-05-19T05:09:06.525Z,0.0
2023-05-19T05:10:06.760Z,0.6
2023-05-19T05:11:06.423Z,0.0
2023-05-19T05:12:06.296Z,0.3
2023-05-19T05:13:06.837Z,0.3
2023-05-19T05:14:06.687Z,0.0
2023-05-19T05:15:06.599Z,0.2
2023-05-19T05:16:06.644Z,0.1
2023-05-19T05:17:07.081Z,0.3
2023-05-19T05:18:07.059Z,0.6
2023-05-19T05:19:06.587Z,0.0
2023-05-19T05:20:06.588Z,1.1
2023-05-19T05:21:06.372Z,0.0
2023-05-19T05:22:06.843Z,0.4
2023-05-19T05:23:06.695Z,0.6
2023-05-19T05:24:06.958Z,0.6
2023-05-19T05:25:07.460Z,0.3
2023-05-19T05:26:08.918Z,0.0
2023-05-19T05:27:06.691Z,0.1
2023-05-19T05:28:06.476Z,0.5
2023-05-19T05:29:07.193Z,0.3
2023-05-19T05:30:06.691Z,0.0
2023-05-19T05:31:06.782Z,0.0
2023-05-19T05:32:06.841Z,0.1
2023-05-19T05:33:06.891Z,0.3
2023-05-19T05:34:06.264Z,0.5
2023-05-19T05:35:06.225Z,0.1
2023-05-19T05:36:07.086Z,0.3
2023-05-19T05:37:06.559Z,0.5
2023-05-19T05:38:06.902Z,0.1
2023-05-19T05:39:06.154Z,0.3
2023-05-19T05:40:06.570Z,0.1
2023-05-19T05:41:06.625Z,0.4
2023-05-19T05:42:07.003Z,0.1
2023-05-19T05:43:06.253Z,0.0
2023-05-19T05:44:06.112Z,0.1
2023-05-19T05:45:06.479Z,0.0
2023-05-19T05:46:06.657Z,0.1
2023-05-19T05:47:06.908Z,0.0
2023-05-19T05:48:06.580Z,0.2
2023-05-19T05:49:06.368Z,0.3
2023-05-19T05:50:07.457Z,0.1
2023-05-19T05:51:06.967Z,0.3
2023-05-19T05:52:07.674Z,0.0
2023-05-19T05:53:06.746Z,0.3
2023-05-19T05:54:06.449Z,0.0
2023-05-19T05:55:07.312Z,0.0
2023-05-19T05:56:06.949Z,0.2
2023-05-19T05:57:06.824Z,0.9
2023-05-19T05:58:06.315Z,0.2
2023-05-19T05:59:06.041Z,0.2
2023-05-19T06:00:07.410Z,0.5
2023-05-19T06:01:06.579Z,0.5
2023-05-19T06:02:06.494Z,1.4
2023-05-19T06:03:06.403Z,0.9
2023-05-19T06:04:05.979Z,1.1
2023-05-19T06:05:07.089Z,0.7
2023-05-19T06:06:06.753Z,1.1
2023-05-19T06:07:06.373Z,0.8
2023-05-19T06:08:06.215Z,1.7
2023-05-19T06:09:06.093Z,1.6
2023-05-19T06:10:07.812Z,2.3
2023-05-19T06:11:06.703Z,3.8
2023-05-19T06:12:06.546Z,3.7
2023-05-19T06:13:06.224Z,4.1
2023-05-19T06:14:06.039Z,5.4
2023-05-19T06:15:07.016Z,5.3
2023-05-19T06:16:06.477Z,5.1
2023-05-19T06:17:06.821Z,5.3
2023-05-19T06:18:06.786Z,5.4
2023-05-19T06:19:06.528Z,6.0
2023-05-19T06:20:06.780Z,5.5
2023-05-19T06:21:06.199Z,5.9
2023-05-19T06:22:05.981Z,7.9
2023-05-19T06:23:06.601Z,6.9
2023-05-19T06:24:06.466Z,6.4
2023-05-19T06:25:06.461Z,5.5
2023-05-19T06:26:06.691Z,6.6
2023-05-19T06:27:06.438Z,6.2
2023-05-19T06:28:06.202Z,7.0
2023-05-19T06:29:06.033Z,7.8
2023-05-19T06:30:07.196Z,6.4
2023-05-19T06:31:06.708Z,5.4
2023-05-19T06:32:06.398Z,5.8
2023-05-19T06:33:06.232Z,4.9
2023-05-19T06:34:06.009Z,5.9
2023-05-19T06:35:07.044Z,5.7
2023-05-19T06:36:06.730Z,7.4
2023-05-19T06:37:06.630Z,7.4
2023-05-19T06:38:06.669Z,6.2
2023-05-19T06:39:06.436Z,7.0
2023-05-19T06:40:06.820Z,6.7
2023-05-19T06:41:06.123Z,4.6
2023-05-19T06:42:06.137Z,5.4
2023-05-19T06:43:06.668Z,6.7
2023-05-19T06:44:06.648Z,4.0
2023-05-19T06:45:06.835Z,7.0
2023-05-19T06:46:06.105Z,6.7
2023-05-19T06:47:06.212Z,4.2
2023-05-19T06:48:06.655Z,4.6
2023-05-19T06:49:06.436Z,4.8
2023-05-19T06:50:06.951Z,4.3
2023-05-19T06:51:06.549Z,4.0
2023-05-19T06:52:06.368Z,3.8
2023-05-19T06:53:06.169Z,4.7
2023-05-19T06:54:06.010Z,3.4
2023-05-19T06:55:07.031Z,4.1
2023-05-19T06:56:06.702Z,4.8
2023-05-19T06:57:06.363Z,3.0
2023-05-19T06:58:06.165Z,4.7
2023-05-19T06:59:05.975Z,5.2
2023-05-19T07:00:07.114Z,4.9
2023-05-19T07:01:06.566Z,5.9
2023-05-19T07:02:06.804Z,4.0
2023-05-19T07:03:06.382Z,2.8
2023-05-19T07:04:06.108Z,4.5
2023-05-19T07:05:06.888Z,3.4
2023-05-19T07:06:08.091Z,4.8
2023-05-19T07:07:06.312Z,3.3
2023-05-19T07:08:08.709Z,4.5
2023-05-19T07:09:06.022Z,4.2
2023-05-19T07:10:06.947Z,5.1
2023-05-19T07:11:06.715Z,4.6
2023-05-19T07:12:06.484Z,2.8
2023-05-19T07:13:06.119Z,3.8
2023-05-19T07:14:06.050Z,6.3
2023-05-19T07:15:06.852Z,3.1
2023-05-19T07:16:06.557Z,3.5
2023-05-19T07:17:06.373Z,4.9
2023-05-19T07:18:06.162Z,5.0
2023-05-19T07:19:06.200Z,4.0
2023-05-19T07:20:07.074Z,3.6
2023-05-19T07:21:06.509Z,3.5
2023-05-19T07:22:06.294Z,4.2
2023-05-19T07:23:06.106Z,4.8
2023-05-19T07:24:06.924Z,4.3
2023-05-19T07:25:07.121Z,3.6
2023-05-19T07:26:06.492Z,3.9
2023-05-19T07:27:06.302Z,2.5
2023-05-19T07:28:06.120Z,3.3
2023-05-19T07:29:05.950Z,4.4
2023-05-19T07:30:07.134Z,4.0
2023-05-19T07:31:06.485Z,4.7
2023-05-19T07:32:06.364Z,4.7
2023-05-19T07:33:06.122Z,3.1
2023-05-19T07:34:06.855Z,3.6
2023-05-19T07:35:06.830Z,3.2
2023-05-19T07:36:06.486Z,4.8
2023-05-19T07:37:06.357Z,4.0
2023-05-19T07:38:06.083Z,3.3
2023-05-19T07:39:06.803Z,5.3
2023-05-19T07:40:07.116Z,3.7
2023-05-19T07:41:06.437Z,4.1
2023-05-19T07:42:06.308Z,4.4
2023-05-19T07:43:06.053Z,4.8
2023-05-19T07:44:06.805Z,5.6
2023-05-19T07:45:06.978Z,3.6
2023-05-19T07:46:06.518Z,4.9
2023-05-19T07:47:06.311Z,3.5
2023-05-19T07:48:06.183Z,4.8
2023-05-19T07:49:06.772Z,3.8
2023-05-19T07:50:06.954Z,4.0
2023-05-19T07:51:06.537Z,3.6
2023-05-19T07:52:06.333Z,5.4
2023-05-19T07:53:06.246Z,3.5
2023-05-19T07:54:06.295Z,5.2
2023-05-19T07:55:06.227Z,2.7
2023-05-19T07:56:06.832Z,3.4
2023-05-19T07:57:06.665Z,5.2
2023-05-19T07:58:06.535Z,4.8
2023-05-19T07:59:06.274Z,3.9
2023-05-19T08:00:07.492Z,2.5
2023-05-19T08:01:06.035Z,2.9
2023-05-19T08:02:06.714Z,4.2
2023-05-19T08:03:06.554Z,3.1
2023-05-19T08:04:06.420Z,3.4
2023-05-19T08:05:06.500Z,4.4
2023-05-19T08:06:06.892Z,4.2
2023-05-19T08:07:06.716Z,4.4
2023-05-19T08:08:06.579Z,3.2
2023-05-19T08:09:06.329Z,3.3
2023-05-19T08:10:06.535Z,3.5
2023-05-19T08:11:06.055Z,4.2
2023-05-19T08:12:06.668Z,4.2
2023-05-19T08:13:06.431Z,3.1
2023-05-19T08:14:06.308Z,2.5
2023-05-19T08:15:06.458Z,3.4
2023-05-19T08:16:06.820Z,3.2
2023-05-19T08:17:06.705Z,2.8
2023-05-19T08:18:06.545Z,2.6
2023-05-19T08:19:06.331Z,2.7
2023-05-19T08:20:06.587Z,2.5
2023-05-19T08:21:06.789Z,3.5
2023-05-19T08:22:06.700Z,3.2
2023-05-19T08:23:06.919Z,2.9
2023-05-19T08:24:06.367Z,2.9
2023-05-19T08:25:06.257Z,3.3
2023-05-19T08:26:06.790Z,3.2
2023-05-19T08:27:06.607Z,2.9
2023-05-19T08:28:06.475Z,3.2
2023-05-19T08:29:06.313Z,2.9
2023-05-19T08:30:06.504Z,3.5
2023-05-19T08:31:06.736Z,2.8
2023-05-19T08:32:06.853Z,3.2
2023-05-19T08:33:06.455Z,4.3
2023-05-19T08:34:06.296Z,3.5
2023-05-19T08:35:06.420Z,3.0
2023-05-19T08:36:06.935Z,2.3
2023-05-19T08:37:06.650Z,3.0
2023-05-19T08:38:06.432Z,3.1
2023-05-19T08:39:06.267Z,3.9
2023-05-19T08:40:06.603Z,3.6
2023-05-19T08:41:06.687Z,4.5
2023-05-19T08:42:06.554Z,4.4
2023-05-19T08:43:06.574Z,2.8
2023-05-19T08:44:06.319Z,3.6
2023-05-19T08:45:06.493Z,3.7
2023-05-19T08:46:06.776Z,3.3
2023-05-19T08:47:06.629Z,3.3
2023-05-19T08:48:06.933Z,2.7
2023-05-19T08:49:10.463Z,3.0
2023-05-19T08:50:06.762Z,4.0
2023-05-19T08:51:24.749Z,3.5
2023-05-19T08:52:26.898Z,2.8
2023-05-19T08:53:28.945Z,3.0
2023-05-19T08:54:13.616Z,2.8
2023-05-19T08:55:10.761Z,2.1
2023-05-19T08:56:15.113Z,3.1
2023-05-19T08:57:06.601Z,3.2
2023-05-19T08:58:07.398Z,3.6
2023-05-19T08:59:06.950Z,3.7
2023-05-19T09:00:06.511Z,2.4
2023-05-19T09:01:06.934Z,2.8
2023-05-19T09:02:07.198Z,3.4
2023-05-19T09:04:06.851Z,2.5
2023-05-19T09:05:06.411Z,2.5
2023-05-19T09:06:07.216Z,2.7
2023-05-19T09:07:06.842Z,2.4
2023-05-19T09:08:06.821Z,3.5
2023-05-19T09:09:06.352Z,2.8
2023-05-19T09:10:06.423Z,3.0
2023-05-19T09:11:07.729Z,3.8
2023-05-19T09:12:06.523Z,3.2
2023-05-19T09:13:06.443Z,2.9
2023-05-19T09:14:06.151Z,3.0
2023-05-19T09:15:08.054Z,2.3
2023-05-19T09:16:06.860Z,2.6
2023-05-19T09:17:06.675Z,3.8
2023-05-19T09:18:12.588Z,3.9
2023-05-19T09:19:11.064Z,3.4
2023-05-19T09:20:06.328Z,3.5
2023-05-19T09:21:06.622Z,3.9
2023-05-19T09:22:06.679Z,2.8
2023-05-19T09:23:06.567Z,2.4
2023-05-19T09:24:06.837Z,3.0
2023-05-19T09:25:11.775Z,2.1
2023-05-19T09:26:06.721Z,3.2
2023-05-19T09:27:06.528Z,3.2
2023-05-19T09:28:07.788Z,3.2
2023-05-19T09:29:15.695Z,3.3
2023-05-19T09:30:07.258Z,3.4
2023-05-19T09:31:09.998Z,3.7
2023-05-19T09:32:06.582Z,3.3
2023-05-19T09:33:08.138Z,2.1
2023-05-19T09:34:10.931Z,2.6
2023-05-19T09:35:07.083Z,3.4
2023-05-19T09:36:06.736Z,2.8
2023-05-19T09:37:06.758Z,3.1
2023-05-19T09:38:06.290Z,3.4
2023-05-19T09:39:12.548Z,3.7
2023-05-19T09:40:11.189Z,3.3
2023-05-19T09:41:06.910Z,3.2
2023-05-19T09:42:06.317Z,2.5
2023-05-19T09:43:07.602Z,2.0
2023-05-19T09:44:05.970Z,2.5
2023-05-19T09:45:07.488Z,2.9
2023-05-19T09:46:07.556Z,3.0
2023-05-19T09:47:08.214Z,2.7
2023-05-19T09:48:06.533Z,2.5
2023-05-19T09:49:08.561Z,3.1
2023-05-19T09:50:10.582Z,4.0
2023-05-19T09:51:06.869Z,3.2
2023-05-19T09:52:06.602Z,2.9
2023-05-19T09:53:06.086Z,3.6
2023-05-19T09:54:06.957Z,3.2
2023-05-19T09:55:10.101Z,2.5
2023-05-19T09:56:07.384Z,2.2
2023-05-19T09:57:08.345Z,3.1
2023-05-19T09:58:06.186Z,3.0
2023-05-19T09:59:06.819Z,2.7
2023-05-19T10:00:07.317Z,2.9
2023-05-19T10:01:07.737Z,3.9
2023-05-19T10:02:10.591Z,2.3
2023-05-19T10:03:06.275Z,3.0
2023-05-19T10:04:06.860Z,2.9
2023-05-19T10:05:07.467Z,3.5
2023-05-19T10:06:07.033Z,2.2
2023-05-19T10:07:06.374Z,1.2
2023-05-19T10:08:06.393Z,2.7
2023-05-19T10:09:07.005Z,2.1
2023-05-19T10:10:11.148Z,4.5
2023-05-19T10:11:06.942Z,2.6
2023-05-19T10:12:06.792Z,3.0
2023-05-19T10:13:06.820Z,2.9
2023-05-19T10:14:07.307Z,2.8
2023-05-19T10:15:10.304Z,2.8
2023-05-19T10:16:07.726Z,3.6
2023-05-19T10:17:07.239Z,2.8
2023-05-19T10:18:06.137Z,2.6
2023-05-19T10:19:08.101Z,1.9
2023-05-19T10:20:10.582Z,3.7
2023-05-19T10:21:06.866Z,2.5
2023-05-19T10:22:06.120Z,2.6
2023-05-19T10:23:06.851Z,3.2
2023-05-19T10:24:06.673Z,1.9
2023-05-19T10:25:07.254Z,3.3
2023-05-19T10:26:07.260Z,2.6
2023-05-19T10:27:09.302Z,3.0
2023-05-19T10:28:08.664Z,2.8
2023-05-19T10:29:06.743Z,3.4
2023-05-19T10:30:12.432Z,1.9
2023-05-19T10:31:08.557Z,2.4
2023-05-19T10:32:09.541Z,2.6
2023-05-19T10:33:08.662Z,2.6
2023-05-19T10:34:23.403Z,3.4
2023-05-19T10:35:16.852Z,1.8
2023-05-19T10:36:19.840Z,2.2
2023-05-19T10:37:10.829Z,2.8
2023-05-19T10:38:15.523Z,2.4
2023-05-19T10:39:10.307Z,2.3
2023-05-19T10:40:17.332Z,1.9
2023-05-19T10:41:11.477Z,1.9
2023-05-19T10:42:15.982Z,2.8
2023-05-19T10:43:19.803Z,2.0
2023-05-19T10:44:13.827Z,2.8
2023-05-19T10:45:17.569Z,2.4
2023-05-19T10:46:06.496Z,2.7
2023-05-19T10:47:06.544Z,1.9
2023-05-19T10:48:09.779Z,2.2
2023-05-19T10:49:08.473Z,1.9
2023-05-19T10:50:07.192Z,2.9
2023-05-19T10:51:07.586Z,3.1
2023-05-19T10:52:21.399Z,2.9
2023-05-19T10:53:10.919Z,2.1
2023-05-19T10:54:10.443Z,2.9
2023-05-19T10:55:07.259Z,2.6
2023-05-19T10:56:06.367Z,1.7
2023-05-19T10:57:07.091Z,2.1
2023-05-19T10:58:06.113Z,2.9
2023-05-19T10:59:07.356Z,2.5
2023-05-19T11:00:26.304Z,2.4
2023-05-19T11:01:07.018Z,2.6
2023-05-19T11:02:07.135Z,2.7
2023-05-19T11:03:15.244Z,3.0
2023-05-19T11:04:07.591Z,1.8
2023-05-19T11:05:07.255Z,2.1
2023-05-19T11:06:18.795Z,2.0
2023-05-19T11:07:08.092Z,2.0
2023-05-19T11:08:06.025Z,2.4
2023-05-19T11:09:13.490Z,2.5
2023-05-19T11:10:06.810Z,2.4
2023-05-19T11:11:13.297Z,2.7
2023-05-19T11:12:07.382Z,3.2
2023-05-19T11:13:06.917Z,3.0
2023-05-19T11:14:06.668Z,3.2
2023-05-19T11:15:07.198Z,1.9
2023-05-19T11:16:06.863Z,2.0
2023-05-19T11:17:10.908Z,1.4
2023-05-19T11:18:06.888Z,2.1
2023-05-19T11:19:06.721Z,2.6
2023-05-19T11:20:07.106Z,2.0
2023-05-19T11:21:06.205Z,2.1
2023-05-19T11:22:12.753Z,2.5
2023-05-19T11:23:07.699Z,2.8
2023-05-19T11:24:09.458Z,2.6
2023-05-19T11:25:06.598Z,2.9
2023-05-19T11:26:06.770Z,3.4
2023-05-19T11:27:24.267Z,2.3
2023-05-19T11:28:06.366Z,2.5
2023-05-19T11:29:06.081Z,3.0
2023-05-19T11:30:09.891Z,1.6
2023-05-19T11:31:06.735Z,2.4
2023-05-19T11:32:06.552Z,1.8
2023-05-19T11:33:06.867Z,2.7
2023-05-19T11:34:06.110Z,2.6
2023-05-19T11:35:07.245Z,3.1
2023-05-19T11:36:07.032Z,2.9
2023-05-19T11:37:06.446Z,2.1
2023-05-19T11:38:06.305Z,2.1
2023-05-19T11:39:07.447Z,2.2
2023-05-19T11:40:06.933Z,3.6
2023-05-19T11:41:06.773Z,2.3
2023-05-19T11:42:08.084Z,2.2
2023-05-19T11:43:06.139Z,3.3
2023-05-19T11:44:10.370Z,2.4
2023-05-19T11:45:07.290Z,1.9
2023-05-19T11:46:06.707Z,2.1
2023-05-19T11:47:06.553Z,2.2
2023-05-19T11:48:10.036Z,2.5
2023-05-19T11:49:06.772Z,2.1
2023-05-19T11:50:06.851Z,2.8
2023-05-19T11:51:06.415Z,1.7
2023-05-19T11:52:06.261Z,2.9
2023-05-19T11:53:06.010Z,2.8
2023-05-19T11:54:06.805Z,2.7
2023-05-19T11:55:06.877Z,2.4
2023-05-19T11:56:06.469Z,2.3
2023-05-19T11:57:07.703Z,2.6
2023-05-19T11:58:06.239Z,3.0
2023-05-19T11:59:07.032Z,1.8
2023-05-19T12:00:07.011Z,2.0
2023-05-19T12:01:06.421Z,1.1
2023-05-19T12:02:16.418Z,1.5
2023-05-19T12:03:06.568Z,2.8
2023-05-19T12:04:09.422Z,2.8
2023-05-19T12:05:06.794Z,2.2
2023-05-19T12:06:06.462Z,2.5
2023-05-19T12:07:06.195Z,2.1
2023-05-19T12:08:06.084Z,1.3
2023-05-19T12:09:06.665Z,2.0
2023-05-19T12:10:07.481Z,1.8
2023-05-19T12:11:06.376Z,2.6
2023-05-19T12:12:06.676Z,2.4
2023-05-19T12:13:06.915Z,2.5
2023-05-19T12:14:06.619Z,2.4
2023-05-19T12:15:06.997Z,2.3
2023-05-19T12:16:07.438Z,2.2
2023-05-19T12:17:09.687Z,1.9
2023-05-19T12:18:06.897Z,1.5
2023-05-19T12:19:07.601Z,2.2
2023-05-19T12:20:06.886Z,3.1
2023-05-19T12:21:06.204Z,1.7
2023-05-19T12:22:06.613Z,2.0
2023-05-19T12:23:06.885Z,2.9
2023-05-19T12:24:06.775Z,1.8
2023-05-19T12:25:06.731Z,1.8
2023-05-19T12:26:06.618Z,2.3
2023-05-19T12:27:16.387Z,1.9
2023-05-19T12:28:06.711Z,1.7
2023-05-19T12:29:06.569Z,1.9
2023-05-19T12:30:06.828Z,1.1
2023-05-19T12:31:06.127Z,2.2
2023-05-19T12:32:08.772Z,1.5
2023-05-19T12:33:07.356Z,1.9
2023-05-19T12:34:06.518Z,2.1
2023-05-19T12:35:06.543Z,1.9
2023-05-19T12:36:06.753Z,2.6
2023-05-19T12:37:06.081Z,2.3
2023-05-19T12:38:06.715Z,2.3
2023-05-19T12:39:06.463Z,2.2
2023-05-19T12:40:06.836Z,2.2
2023-05-19T12:41:06.044Z,2.6
2023-05-19T12:42:07.259Z,2.1
2023-05-19T12:43:06.654Z,1.8
2023-05-19T12:44:15.238Z,1.1
2023-05-19T12:45:06.719Z,2.0
2023-05-19T12:46:12.233Z,1.9
2023-05-19T12:47:06.722Z,2.6
2023-05-19T12:48:12.870Z,1.4
2023-05-19T12:49:06.408Z,1.6
2023-05-19T12:50:07.021Z,1.7
2023-05-19T12:51:06.025Z,1.6
2023-05-19T12:52:11.908Z,2.0
2023-05-19T12:53:13.253Z,2.5
2023-05-19T12:54:06.437Z,2.1
2023-05-19T12:55:07.095Z,2.6
2023-05-19T12:56:12.875Z,1.8
2023-05-19T12:57:06.647Z,2.5
2023-05-19T12:58:06.465Z,1.8
2023-05-19T12:59:06.364Z,2.0
2023-05-19T13:00:07.594Z,3.0
2023-05-19T13:01:06.045Z,1.4
2023-05-19T13:02:06.872Z,1.4
2023-05-19T13:03:07.988Z,2.6
2023-05-19T13:04:06.840Z,1.7
2023-05-19T13:05:06.207Z,1.9
2023-05-19T13:06:06.229Z,2.1
2023-05-19T13:07:06.711Z,2.5
2023-05-19T13:08:07.167Z,2.0
2023-05-19T13:09:06.261Z,2.1
2023-05-19T13:10:06.643Z,2.6
2023-05-19T13:11:06.840Z,1.1
2023-05-19T13:12:06.766Z,1.7
2023-05-19T13:13:07.196Z,3.2
2023-05-19T13:14:06.448Z,1.5
2023-05-19T13:15:06.458Z,1.4
2023-05-19T13:16:06.956Z,2.5
2023-05-19T13:17:06.634Z,1.6
2023-05-19T13:18:07.662Z,1.9
2023-05-19T13:19:06.433Z,2.6
2023-05-19T13:20:06.514Z,2.2
2023-05-19T13:21:06.693Z,2.5
2023-05-19T13:22:06.547Z,1.6
2023-05-19T13:23:06.644Z,2.0
2023-05-19T13:24:06.252Z,2.0
2023-05-19T13:25:06.404Z,1.4
2023-05-19T13:26:06.791Z,1.6
2023-05-19T13:27:06.514Z,1.7
2023-05-19T13:28:06.284Z,1.1
2023-05-19T13:29:06.143Z,1.2
2023-05-19T13:30:07.250Z,1.3
2023-05-19T13:31:06.736Z,1.5
2023-05-19T13:32:06.487Z,1.4
2023-05-19T13:33:06.532Z,1.9
2023-05-19T13:34:06.080Z,1.6
2023-05-19T13:35:07.033Z,1.2
2023-05-19T13:36:06.626Z,1.4
2023-05-19T13:37:07.648Z,1.2
2023-05-19T13:38:07.084Z,1.7
2023-05-19T13:39:06.010Z,1.5
2023-05-19T13:40:07.238Z,1.6
2023-05-19T13:41:07.019Z,1.6
2023-05-19T13:42:06.395Z,1.3
2023-05-19T13:43:06.299Z,2.2
2023-05-19T13:44:06.040Z,1.7
2023-05-19T13:45:07.187Z,1.1
2023-05-19T13:46:06.578Z,1.7
2023-05-19T13:47:06.423Z,1.7